createdAt,value
2019-01-06T00:01:16.889Z,3.2
2019-01-06T00:06:49.484Z,2.9
2019-01-06T00:12:12.544Z,3
2019-01-06T00:17:36.443Z,2.8
2019-01-06T00:23:00.768Z,3.3
2019-01-06T00:28:57.960Z,3
2019-01-06T00:34:19.840Z,3.5
2019-01-06T00:41:01.852Z,3.5
2019-01-06T00:46:24.997Z,3.7
2019-01-06T00:51:58.393Z,4
2019-01-06T00:57:21.689Z,3.5
2019-01-06T01:02:44.568Z,3.3
2019-01-06T01:08:16.507Z,2.5
2019-01-06T01:13:39.328Z,2.5
2019-01-06T01:19:02.325Z,2.2
2019-01-06T01:24:27.576Z,2.1
2019-01-06T01:31:01.164Z,2.8
2019-01-06T01:36:23.742Z,3.2
2019-01-06T01:41:56.460Z,2.6
2019-01-06T01:47:31.300Z,2.8
2019-01-06T01:53:04.613Z,2.4
2019-01-06T01:58:29.878Z,2.6
2019-01-06T02:03:52.534Z,2.5
2019-01-06T02:09:56.208Z,2.2
2019-01-06T02:15:19.722Z,2.9
2019-01-06T02:22:43.996Z,4
2019-01-06T02:28:08.291Z,4.2
2019-01-06T02:34:32.591Z,5
2019-01-06T02:39:56.153Z,4.1
2019-01-06T02:45:29.269Z,4.1
2019-01-06T02:51:02.375Z,4.1
2019-01-06T02:56:34.505Z,4.3
2019-01-06T03:01:57.445Z,5.1
2019-01-06T03:07:24.817Z,4.8
2019-01-06T03:12:48.812Z,4.4
2019-01-06T03:18:24.984Z,3.9
2019-01-06T03:23:48.336Z,4.1
2019-01-06T03:29:22.438Z,4.2
2019-01-06T03:34:45.851Z,4.4
2019-01-06T03:41:15.121Z,4.6
2019-01-06T03:46:40.234Z,4.1
2019-01-06T03:53:58.809Z,4.6
2019-01-06T03:59:23.071Z,4.4
2019-01-06T04:05:49.910Z,4.2
2019-01-06T04:11:15.188Z,3.9
2019-01-06T04:17:07.520Z,4.1
2019-01-06T04:23:00.618Z,3.9
2019-01-06T04:28:32.432Z,4.5
2019-01-06T04:34:06.194Z,4.1
2019-01-06T04:39:30.543Z,3.3
2019-01-06T04:45:03.302Z,3.2
2019-01-06T04:50:58.746Z,3.8
2019-01-06T04:56:33.925Z,3.9
2019-01-06T05:01:57.507Z,4.7
2019-01-06T05:07:33.362Z,4.3
2019-01-06T05:12:58.444Z,4.5
2019-01-06T05:18:37.731Z,4.3
2019-01-06T05:24:00.505Z,4
2019-01-06T05:29:25.314Z,4.5
2019-01-06T05:35:03.201Z,3.9
2019-01-06T05:40:28.188Z,4.5
2019-01-06T05:46:00.932Z,5.1
2019-01-06T05:51:33.298Z,4.7
2019-01-06T05:57:10.578Z,5.2
2019-01-06T06:02:33.430Z,5.1
2019-01-06T06:07:57.952Z,5.6
2019-01-06T06:13:30.575Z,5.6
2019-01-06T06:19:17.783Z,5.5
2019-01-06T06:25:33.746Z,4.8
2019-01-06T06:30:57.400Z,5.2
2019-01-06T06:36:42.395Z,5.2
2019-01-06T06:42:31.492Z,4.9
2019-01-06T06:47:55.305Z,4.9
2019-01-06T06:53:29.047Z,4.9
2019-01-06T06:59:02.000Z,5.3
2019-01-06T07:04:32.991Z,5.3
2019-01-06T07:10:08.009Z,5.6
2019-01-06T07:15:31.432Z,5.6
2019-01-06T07:21:09.684Z,6.5
2019-01-06T07:26:36.163Z,5.8
2019-01-06T07:32:10.313Z,5.7
2019-01-06T07:37:43.339Z,5.3
2019-01-06T07:43:20.422Z,6.6
2019-01-06T07:49:17.462Z,7.7
2019-01-06T07:55:23.527Z,7.2
2019-01-06T08:00:46.577Z,8
2019-01-06T08:06:09.337Z,8
2019-01-06T08:11:42.014Z,8.1
2019-01-06T08:18:37.131Z,8.8
2019-01-06T08:23:59.723Z,9.7
2019-01-06T08:29:36.795Z,8.9
2019-01-06T08:35:08.727Z,8.2
2019-01-06T08:40:31.603Z,8.1
2019-01-06T08:45:54.513Z,7.5
2019-01-06T08:51:21.078Z,7.3
2019-01-06T08:56:43.905Z,7
2019-01-06T09:03:39.749Z,7.6
2019-01-06T09:09:02.866Z,7.8
2019-01-06T09:14:27.710Z,7.3
2019-01-06T09:19:50.900Z,6.8
2019-01-06T09:25:26.481Z,6.4
2019-01-06T09:30:59.509Z,6.1
2019-01-06T09:37:56.275Z,6
2019-01-06T09:43:22.319Z,6
2019-01-06T09:48:45.228Z,6.5
2019-01-06T09:54:17.777Z,6.8
2019-01-06T09:59:40.703Z,7
2019-01-06T10:05:13.981Z,6.4
2019-01-06T10:11:12.175Z,5.5
2019-01-06T10:17:00.533Z,6
2019-01-06T10:22:36.526Z,7
2019-01-06T10:27:59.678Z,7.2
2019-01-06T10:34:07.365Z,5.4
2019-01-06T10:39:29.972Z,6.4
2019-01-06T10:44:57.387Z,7.9
2019-01-06T10:50:20.703Z,7.4
2019-01-06T10:55:43.502Z,7.7
2019-01-06T11:01:06.697Z,7.4
2019-01-06T11:06:29.503Z,6.7
2019-01-06T11:11:52.314Z,7.7
2019-01-06T11:17:15.117Z,7.9
2019-01-06T11:22:38.005Z,8.6
2019-01-06T11:28:00.999Z,8.4
2019-01-06T11:33:33.218Z,8.2
2019-01-06T11:39:00.671Z,5.8
2019-01-06T11:44:50.053Z,6
2019-01-06T11:50:12.707Z,5.8
2019-01-06T11:55:44.242Z,6.3
2019-01-06T12:01:07.679Z,5.9
2019-01-06T12:06:32.419Z,5.7
2019-01-06T12:12:06.304Z,6
2019-01-06T12:17:29.207Z,6.3
2019-01-06T12:23:02.098Z,7.1
2019-01-06T12:28:33.879Z,6.3
2019-01-06T12:34:57.409Z,6.6
2019-01-06T12:40:34.986Z,5.7
2019-01-06T12:45:57.810Z,5.1
2019-01-06T12:51:55.546Z,5
2019-01-06T12:57:18.475Z,3.8
2019-01-06T13:02:52.509Z,4.1
2019-01-06T13:08:27.697Z,4.7
2019-01-06T13:13:51.858Z,6.3
2019-01-06T13:19:14.627Z,5.7
2019-01-06T13:26:10.755Z,5.5
2019-01-06T13:31:33.320Z,4.2
2019-01-06T13:37:05.974Z,4.1
2019-01-06T13:42:32.407Z,4.4
2019-01-06T13:47:57.152Z,5.4
2019-01-06T13:53:19.063Z,4.2
2019-01-06T13:58:53.162Z,4.1
2019-01-06T14:04:16.138Z,4.2
2019-01-06T14:09:53.219Z,4
2019-01-06T14:15:27.944Z,4
2019-01-06T14:20:52.603Z,4.7
2019-01-06T14:26:16.282Z,4
2019-01-06T14:31:39.185Z,4.5
2019-01-06T14:37:10.647Z,4.8
2019-01-06T14:42:33.383Z,5.8
2019-01-06T14:47:56.063Z,6.9
2019-01-06T14:54:48.457Z,7.2
2019-01-06T15:00:11.801Z,6.4
2019-01-06T15:05:34.540Z,6.5
2019-01-06T15:10:58.507Z,6
2019-01-06T15:16:21.453Z,6.2
2019-01-06T15:21:58.892Z,5.5
2019-01-06T15:27:34.682Z,5.2
2019-01-06T15:33:09.897Z,5.3
2019-01-06T15:39:03.032Z,5.4
2019-01-06T15:44:26.008Z,6.3
2019-01-06T15:50:00.258Z,7.5
2019-01-06T15:55:32.521Z,8
2019-01-06T16:01:04.951Z,8.2
2019-01-06T16:06:44.100Z,7.3
2019-01-06T16:12:10.248Z,7.5
2019-01-06T16:17:34.184Z,7.3
2019-01-06T16:23:10.372Z,6.9
2019-01-06T16:28:45.613Z,6.9
2019-01-06T16:34:08.222Z,6.8
2019-01-06T16:39:42.173Z,7.3
2019-01-06T16:45:05.632Z,7.3
2019-01-06T16:50:39.696Z,7.4
2019-01-06T16:56:11.546Z,6.9
2019-01-06T17:01:44.608Z,6.7
2019-01-06T17:07:17.291Z,7.1
2019-01-06T17:12:49.381Z,8.3
2019-01-06T17:18:13.331Z,9.3
2019-01-06T17:24:38.941Z,9.1
2019-01-06T17:30:11.786Z,9
2019-01-06T17:35:36.792Z,8.7
2019-01-06T17:40:59.591Z,9.7
2019-01-06T17:46:22.447Z,10.3
2019-01-06T17:51:46.160Z,9.9
2019-01-06T17:57:10.509Z,10.6
2019-01-06T18:02:33.342Z,11.2
2019-01-06T18:07:56.071Z,9.3
2019-01-06T18:13:18.890Z,9.5
2019-01-06T18:18:42.301Z,9.2
2019-01-06T18:24:05.175Z,9.3
2019-01-06T18:29:41.152Z,7.9
2019-01-06T18:35:13.304Z,7.3
2019-01-06T18:40:47.048Z,7.6
2019-01-06T18:46:09.779Z,9
2019-01-06T18:51:32.962Z,10.4
2019-01-06T18:56:56.618Z,10.3
2019-01-06T19:02:20.839Z,11
2019-01-06T19:07:46.388Z,11.7
2019-01-06T19:13:19.327Z,11.9
2019-01-06T19:18:54.361Z,12.8
2019-01-06T19:24:26.154Z,12.3
2019-01-06T19:29:49.704Z,14
2019-01-06T19:35:13.801Z,13.7
2019-01-06T19:41:37.558Z,11.8
2019-01-06T19:47:00.837Z,14.1
2019-01-06T19:52:34.580Z,13.3
2019-01-06T19:58:07.493Z,13.3
2019-01-06T20:03:30.268Z,13
2019-01-06T20:08:54.968Z,12.8
2019-01-06T20:14:17.578Z,12.9
2019-01-06T20:20:30.133Z,13
2019-01-06T20:25:54.097Z,13.4
2019-01-06T20:31:28.072Z,14.1
2019-01-06T20:37:01.164Z,13.2
2019-01-06T20:42:25.601Z,12.9
2019-01-06T20:47:49.038Z,12.2
2019-01-06T20:53:12.726Z,12.2
2019-01-06T20:58:35.667Z,12.6
2019-01-06T21:03:58.442Z,13.2
2019-01-06T21:09:31.820Z,14
2019-01-06T21:14:54.817Z,14.3
2019-01-06T21:20:27.968Z,14.8
2019-01-06T21:25:51.367Z,14
2019-01-06T21:31:14.094Z,14.5
2019-01-06T21:36:46.699Z,15.5
2019-01-06T21:42:10.649Z,16.1
2019-01-06T21:47:45.216Z,16
2019-01-06T21:53:17.216Z,16.200001
2019-01-06T21:58:50.829Z,16.4
2019-01-06T22:04:14.610Z,16.200001
2019-01-06T22:09:53.986Z,17.299999
2019-01-06T22:15:17.538Z,16.1
2019-01-06T22:20:50.871Z,17
2019-01-06T22:26:22.865Z,17
2019-01-06T22:31:45.885Z,16.5
2019-01-06T22:37:19.761Z,17.200001
2019-01-06T22:42:45.921Z,17.4
2019-01-06T22:48:20.692Z,16.4
2019-01-06T22:53:46.137Z,17.1
2019-01-06T22:59:09.772Z,15.9
2019-01-06T23:04:33.529Z,15.8
2019-01-06T23:10:36.137Z,16.6
2019-01-06T23:16:09.712Z,18
2019-01-06T23:21:32.843Z,17
2019-01-06T23:27:05.393Z,17.700001
2019-01-06T23:32:37.967Z,17.1
2019-01-06T23:38:12.009Z,17.200001
2019-01-06T23:43:35.340Z,18.200001
2019-01-06T23:49:12.092Z,17.6
2019-01-06T23:54:37.240Z,18.200001
